createdAt,value
2022-11-21T00:02:21.846Z,21.63
2022-11-21T00:04:53.478Z,19.35
2022-11-21T00:07:24.294Z,20.38
2022-11-21T00:09:55.392Z,15.57
2022-11-21T00:12:28.467Z,21.25
2022-11-21T00:15:02.120Z,18.35
2022-11-21T00:17:33.157Z,18.88
2022-11-21T00:20:04.114Z,12.90
2022-11-21T00:22:35.114Z,16.98
2022-11-21T00:25:05.980Z,23.92
2022-11-21T00:27:36.765Z,21.60
2022-11-21T00:30:12.783Z,17.40
2022-11-21T00:32:44.455Z,18.77
2022-11-21T00:35:15.523Z,20.15
2022-11-21T00:37:48.825Z,16.67
2022-11-21T00:40:20.235Z,19.48
2022-11-21T00:42:51.046Z,19.08
2022-11-21T00:45:24.860Z,15.07
2022-11-21T00:47:55.843Z,13.23
2022-11-21T00:50:26.562Z,17.88
2022-11-21T00:52:59.215Z,18.92
2022-11-21T00:55:30.502Z,21.75
2022-11-21T00:58:01.553Z,16.92
2022-11-21T01:00:35.139Z,16.25
2022-11-21T01:03:05.930Z,17.85
2022-11-21T01:05:36.825Z,20.85
2022-11-21T01:08:08.145Z,20.13
2022-11-21T01:10:39.213Z,18.13
2022-11-21T01:13:10.080Z,16.23
2022-11-21T01:15:44.150Z,20.08
2022-11-21T01:18:14.929Z,16.27
2022-11-21T01:20:45.702Z,13.02
2022-11-21T01:23:16.477Z,21.38
2022-11-21T01:25:47.307Z,22.50
2022-11-21T01:28:18.303Z,18.25
2022-11-21T01:30:51.758Z,18.98
2022-11-21T01:33:23.259Z,12.32
2022-11-21T01:35:54.569Z,18.17
2022-11-21T01:38:25.358Z,27.05
2022-11-21T01:40:56.168Z,17.48
2022-11-21T01:43:26.946Z,16.40
2022-11-21T01:46:02.126Z,17.55
2022-11-21T01:48:39.867Z,17.75
2022-11-21T01:51:18.246Z,18.88
2022-11-21T01:53:54.323Z,19.50
2022-11-21T01:56:26.383Z,19.73
2022-11-21T01:59:02.555Z,17.67
2022-11-21T02:01:39.227Z,19.00
2022-11-21T02:04:11.730Z,16.45
2022-11-21T02:06:43.498Z,14.20
2022-11-21T02:09:14.891Z,26.02
2022-11-21T02:11:51.011Z,20.08
2022-11-21T02:14:22.173Z,20.20
2022-11-21T02:17:00.304Z,19.20
2022-11-21T02:19:38.624Z,19.60
2022-11-21T02:22:16.283Z,15.38
2022-11-21T02:24:50.045Z,25.23
2022-11-21T02:27:23.424Z,17.58
2022-11-21T02:29:54.440Z,13.73
2022-11-21T02:32:26.600Z,15.07
2022-11-21T02:34:57.360Z,16.35
2022-11-21T02:37:28.343Z,18.92
2022-11-21T02:40:01.953Z,19.85
2022-11-21T02:42:39.672Z,21.15
2022-11-21T02:45:17.500Z,17.00
2022-11-21T02:47:50.700Z,19.65
2022-11-21T02:50:25.106Z,22.05
2022-11-21T02:52:56.260Z,14.85
2022-11-21T02:55:27.936Z,19.50
2022-11-21T02:58:05.104Z,23.58
2022-11-21T03:00:37.221Z,13.57
2022-11-21T03:03:08.897Z,19.80
2022-11-21T03:05:40.349Z,14.18
2022-11-21T03:08:12.023Z,19.35
2022-11-21T03:10:42.830Z,17.38
2022-11-21T03:13:16.392Z,18.13
2022-11-21T03:15:47.956Z,17.67
2022-11-21T03:18:19.092Z,14.30
2022-11-21T03:20:49.962Z,19.67
2022-11-21T03:23:21.243Z,20.50
2022-11-21T03:25:52.025Z,19.33
2022-11-21T03:28:25.309Z,21.40
2022-11-21T03:30:56.021Z,26.75
2022-11-21T03:33:27.238Z,21.48
2022-11-21T03:35:58.022Z,20.73
2022-11-21T03:38:28.827Z,18.67
2022-11-21T03:40:59.843Z,19.98
2022-11-21T03:43:33.202Z,17.75
2022-11-21T03:46:03.932Z,15.50
2022-11-21T03:48:35.054Z,14.90
2022-11-21T03:51:06.300Z,13.45
2022-11-21T03:53:37.141Z,19.40
2022-11-21T03:56:08.858Z,23.02
2022-11-21T03:58:42.265Z,19.98
2022-11-21T04:01:13.863Z,23.27
2022-11-21T04:03:44.966Z,18.13
2022-11-21T04:06:18.079Z,18.08
2022-11-21T04:08:49.619Z,18.15
2022-11-21T04:11:22.246Z,16.90
2022-11-21T04:13:56.217Z,17.08
2022-11-21T04:16:27.509Z,14.30
2022-11-21T04:18:58.376Z,24.65
2022-11-21T04:21:29.520Z,18.45
2022-11-21T04:24:00.273Z,13.68
2022-11-21T04:26:31.019Z,24.10
2022-11-21T04:29:04.400Z,18.15
2022-11-21T04:31:35.311Z,21.50
2022-11-21T04:34:06.531Z,16.38
2022-11-21T04:36:37.753Z,20.85
2022-11-21T04:39:08.592Z,26.95
2022-11-21T04:41:39.324Z,21.85
2022-11-21T04:44:12.743Z,18.40
2022-11-21T04:46:44.046Z,22.40
2022-11-21T04:49:14.934Z,20.13
2022-11-21T04:51:45.844Z,21.58
2022-11-21T04:54:17.212Z,16.25
2022-11-21T04:56:47.971Z,19.52
2022-11-21T04:59:21.747Z,18.80
2022-11-21T05:01:52.601Z,19.52
2022-11-21T05:04:23.351Z,16.90
2022-11-21T05:06:54.114Z,16.15
2022-11-21T05:09:24.947Z,19.67
2022-11-21T05:12:07.984Z,18.10
2022-11-21T05:14:41.808Z,21.38
2022-11-21T05:17:12.700Z,19.40
2022-11-21T05:19:44.004Z,17.52
2022-11-21T05:22:14.970Z,18.85
2022-11-21T05:24:45.807Z,22.38
2022-11-21T05:27:17.082Z,18.17
2022-11-21T05:29:50.866Z,18.50
2022-11-21T05:32:21.601Z,20.17
2022-11-21T05:34:52.353Z,20.02
2022-11-21T05:37:23.465Z,16.63
2022-11-21T05:39:54.653Z,22.58
2022-11-21T05:42:45.398Z,19.17
2022-11-21T05:45:16.394Z,16.67
2022-11-21T05:47:47.263Z,11.27
2022-11-21T05:50:18.568Z,28.35
2022-11-21T05:52:49.850Z,14.90
2022-11-21T05:55:20.940Z,13.52
2022-11-21T05:57:52.166Z,18.63
2022-11-21T06:00:26.195Z,20.05
2022-11-21T06:03:09.464Z,20.90
2022-11-21T06:05:40.248Z,19.92
2022-11-21T06:08:11.255Z,19.00
2022-11-21T06:10:42.095Z,11.43
2022-11-21T06:13:22.414Z,17.45
2022-11-21T06:15:58.092Z,16.13
2022-11-21T06:18:30.195Z,24.42
2022-11-21T06:21:05.048Z,19.83
2022-11-21T06:23:36.422Z,26.90
2022-11-21T06:26:09.139Z,22.77
2022-11-21T06:28:41.478Z,15.55
2022-11-21T06:31:16.386Z,10.35
2022-11-21T06:33:48.434Z,19.38
2022-11-21T06:36:20.623Z,22.13
2022-11-21T06:38:52.179Z,21.92
2022-11-21T06:41:25.102Z,19.27
2022-11-21T06:43:56.553Z,16.75
2022-11-21T06:46:30.962Z,22.35
2022-11-21T06:49:02.063Z,15.25
2022-11-21T06:51:33.323Z,23.75
2022-11-21T06:54:04.547Z,16.40
2022-11-21T06:56:35.944Z,19.50
2022-11-21T06:59:07.168Z,18.40
2022-11-21T07:01:41.387Z,23.23
2022-11-21T07:04:12.844Z,18.35
2022-11-21T07:06:43.955Z,18.35
2022-11-21T07:09:32.733Z,22.58
2022-11-21T07:12:17.219Z,21.52
2022-11-21T07:14:48.741Z,21.38
2022-11-21T07:17:22.802Z,17.05
2022-11-21T07:19:53.730Z,15.02
2022-11-21T07:22:29.644Z,17.30
2022-11-21T07:25:01.807Z,20.27
2022-11-21T07:27:32.610Z,19.13
2022-11-21T07:30:03.330Z,17.27
2022-11-21T07:32:36.821Z,17.10
2022-11-21T07:35:08.628Z,29.25
2022-11-21T07:37:43.067Z,18.48
2022-11-21T07:40:15.004Z,18.40
2022-11-21T07:42:45.900Z,20.33
2022-11-21T07:45:17.853Z,23.02
2022-11-21T07:47:51.676Z,21.75
2022-11-21T07:50:23.016Z,16.98
2022-11-21T07:52:54.073Z,15.02
2022-11-21T07:55:25.236Z,17.95
2022-11-21T07:58:03.209Z,11.55
2022-11-21T08:00:36.492Z,13.13
2022-11-21T08:03:12.523Z,22.20
2022-11-21T08:05:45.454Z,15.23
2022-11-21T08:08:17.940Z,16.30
2022-11-21T08:10:51.724Z,18.27
2022-11-21T08:13:26.939Z,17.25
2022-11-21T08:15:58.484Z,22.77
2022-11-21T08:18:32.283Z,14.88
2022-11-21T08:21:06.263Z,18.27
2022-11-21T08:23:37.830Z,18.00
2022-11-21T08:26:11.799Z,17.70
2022-11-21T08:28:43.625Z,18.63
2022-11-21T08:31:15.110Z,14.13
2022-11-21T08:33:49.401Z,21.90
2022-11-21T08:36:21.109Z,14.52
2022-11-21T08:38:51.950Z,23.95
2022-11-21T08:41:35.285Z,13.13
2022-11-21T08:44:09.863Z,18.02
2022-11-21T08:46:44.140Z,18.20
2022-11-21T08:49:19.393Z,20.80
2022-11-21T08:51:52.061Z,18.60
2022-11-21T08:54:25.704Z,17.98
2022-11-21T08:56:57.481Z,17.45
2022-11-21T08:59:28.564Z,16.30
2022-11-21T09:01:59.800Z,16.80
2022-11-21T09:04:33.832Z,15.20
2022-11-21T09:07:05.195Z,16.23
2022-11-21T09:09:37.759Z,16.55
2022-11-21T09:12:09.799Z,17.30
2022-11-21T09:14:52.939Z,12.75
2022-11-21T09:17:36.022Z,10.52
2022-11-21T09:20:11.642Z,11.98
2022-11-21T09:22:42.925Z,9.07
2022-11-21T09:25:14.103Z,11.23
2022-11-21T09:27:44.830Z,10.93
2022-11-21T09:30:16.328Z,11.32
2022-11-21T09:32:47.702Z,11.48
2022-11-21T09:35:21.738Z,11.82
2022-11-21T09:37:53.004Z,13.02
2022-11-21T09:40:24.161Z,10.20
2022-11-21T09:43:04.045Z,9.75
2022-11-21T09:45:37.852Z,8.35
2022-11-21T09:48:14.720Z,11.70
2022-11-21T09:50:54.990Z,8.05
2022-11-21T09:53:29.326Z,8.45
2022-11-21T09:56:02.833Z,6.38
2022-11-21T09:58:39.265Z,4.05
2022-11-21T10:01:13.989Z,7.40
2022-11-21T10:03:47.564Z,7.60
2022-11-21T10:06:25.929Z,6.70
2022-11-21T10:09:05.801Z,5.68
2022-11-21T10:11:58.770Z,6.70
2022-11-21T10:14:46.466Z,7.05
2022-11-21T10:17:25.906Z,3.67
2022-11-21T10:20:20.767Z,4.78
2022-11-21T10:23:19.583Z,11.20
2022-11-21T10:25:58.731Z,6.60
2022-11-21T10:28:41.927Z,4.72
2022-11-21T10:31:14.885Z,5.25
2022-11-21T10:33:46.358Z,3.65
2022-11-21T10:36:26.611Z,3.72
2022-11-21T10:39:06.364Z,4.35
2022-11-21T10:41:45.442Z,2.15
2022-11-21T10:44:39.593Z,4.25
2022-11-21T10:47:27.644Z,3.35
2022-11-21T10:50:05.710Z,2.50
2022-11-21T10:52:40.172Z,2.25
2022-11-21T10:55:20.105Z,2.97
2022-11-21T10:57:52.656Z,6.22
2022-11-21T11:00:27.612Z,2.72
2022-11-21T11:03:19.894Z,2.72
2022-11-21T11:06:00.767Z,3.17
2022-11-21T11:08:32.177Z,3.47
2022-11-21T11:11:15.205Z,3.78
2022-11-21T11:13:59.698Z,2.92
2022-11-21T11:16:36.022Z,3.97
2022-11-21T11:19:31.628Z,2.78
2022-11-21T11:22:05.569Z,4.32
2022-11-21T11:24:36.730Z,8.43
2022-11-21T11:27:12.257Z,5.97
2022-11-21T11:29:54.705Z,6.05
2022-11-21T11:32:26.216Z,14.80
2022-11-21T11:35:03.403Z,13.02
2022-11-21T11:37:41.141Z,13.45
2022-11-21T11:40:24.940Z,10.93
2022-11-21T11:43:28.433Z,15.20
2022-11-21T11:46:24.164Z,9.55
2022-11-21T11:49:21.045Z,16.02
2022-11-21T11:51:57.577Z,13.45
2022-11-21T11:54:33.340Z,16.88
2022-11-21T11:57:06.838Z,14.70
2022-11-21T11:59:44.742Z,15.13
2022-11-21T12:02:22.030Z,17.75
2022-11-21T12:04:57.511Z,13.65
2022-11-21T12:08:38.877Z,16.73
2022-11-21T12:10:31.987Z,18.10
2022-11-21T12:13:13.937Z,16.23
2022-11-21T12:15:58.475Z,13.55
2022-11-21T12:18:39.644Z,19.77
2022-11-21T12:21:16.052Z,14.25
2022-11-21T12:23:50.730Z,17.48
2022-11-21T12:26:43.577Z,28.08
2022-11-21T12:29:26.467Z,19.88
2022-11-21T12:32:19.552Z,21.17
2022-11-21T12:35:08.692Z,17.70
2022-11-21T12:37:47.954Z,19.42
2022-11-21T12:40:41.177Z,12.65
2022-11-21T12:43:29.050Z,14.70
2022-11-21T12:46:09.222Z,19.40
2022-11-21T12:49:09.831Z,22.40
2022-11-21T12:52:19.980Z,16.70
2022-11-21T12:55:01.052Z,18.65
2022-11-21T12:57:42.525Z,20.48
2022-11-21T13:00:20.310Z,26.23
2022-11-21T13:03:27.028Z,15.30
2022-11-21T13:06:01.753Z,27.50
2022-11-21T13:08:35.313Z,18.63
2022-11-21T13:11:25.496Z,22.77
2022-11-21T13:14:04.604Z,21.33
2022-11-21T13:16:45.129Z,18.48
2022-11-21T13:19:25.904Z,16.83
2022-11-21T13:21:59.463Z,18.83
2022-11-21T13:24:59.037Z,18.27
2022-11-21T13:27:38.890Z,34.40
2022-11-21T13:30:28.903Z,16.80
2022-11-21T13:33:00.142Z,14.30
2022-11-21T13:36:10.426Z,14.02
2022-11-21T13:39:14.197Z,7.15
2022-11-21T13:42:20.687Z,7.65
2022-11-21T13:44:52.696Z,6.70
2022-11-21T13:48:09.188Z,8.57
2022-11-21T13:51:10.695Z,9.50
2022-11-21T13:54:07.884Z,9.98
2022-11-21T13:56:47.158Z,8.57
2022-11-21T13:59:39.120Z,11.48
2022-11-21T14:02:34.457Z,11.88
2022-11-21T14:05:33.056Z,6.80
2022-11-21T14:08:17.927Z,7.47
2022-11-21T14:10:50.298Z,9.80
2022-11-21T14:13:25.866Z,11.20
2022-11-21T14:16:16.802Z,12.15
2022-11-21T14:18:49.615Z,10.40
2022-11-21T14:21:27.398Z,10.15
2022-11-21T14:24:05.279Z,10.75
2022-11-21T14:26:44.595Z,12.82
2022-11-21T14:29:22.920Z,10.80
2022-11-21T14:31:56.885Z,10.88
2022-11-21T14:34:29.115Z,13.13
2022-11-21T14:37:03.585Z,12.88
2022-11-21T14:39:41.941Z,14.80
2022-11-21T14:42:18.154Z,13.15
2022-11-21T14:44:49.020Z,12.90
2022-11-21T14:47:26.735Z,10.02
2022-11-21T14:50:07.258Z,12.57
2022-11-21T14:52:38.626Z,12.88
2022-11-21T14:55:32.459Z,12.05
2022-11-21T14:58:05.805Z,6.68
2022-11-21T15:03:29.966Z,9.15
2022-11-21T15:06:07.977Z,7.95
2022-11-21T15:09:45.662Z,6.47
2022-11-21T15:11:39.902Z,6.10
2022-11-21T15:14:20.689Z,11.63
2022-11-21T15:16:55.500Z,8.10
2022-11-21T15:19:32.757Z,5.20
2022-11-21T15:22:06.576Z,6.88
2022-11-21T15:24:43.306Z,6.60
2022-11-21T15:30:27.986Z,6.60
2022-11-21T15:33:11.042Z,6.22
2022-11-21T15:35:55.720Z,3.55
2022-11-21T15:38:34.710Z,22.42
2022-11-21T15:41:09.529Z,4.68
2022-11-21T15:43:43.511Z,3.97
2022-11-21T15:46:22.376Z,6.20
2022-11-21T15:48:54.659Z,7.68
2022-11-21T15:51:59.600Z,3.80
2022-11-21T15:54:24.205Z,4.30
2022-11-21T15:56:55.316Z,4.43
2022-11-21T15:59:26.859Z,4.72
2022-11-21T16:01:57.900Z,7.18
2022-11-21T16:04:28.744Z,9.75
2022-11-21T16:07:02.932Z,6.43
2022-11-21T16:09:34.314Z,5.68
2022-11-21T16:12:05.415Z,7.95
2022-11-21T16:14:36.677Z,7.53
2022-11-21T16:17:07.855Z,20.73
2022-11-21T16:19:38.752Z,7.82
2022-11-21T16:22:13.258Z,15.57
2022-11-21T16:24:44.204Z,8.35
2022-11-21T16:27:15.651Z,11.57
2022-11-21T16:29:48.711Z,7.50
2022-11-21T16:32:20.558Z,11.48
2022-11-21T16:34:52.240Z,8.63
2022-11-21T16:37:26.453Z,8.32
2022-11-21T16:39:57.739Z,13.52
2022-11-21T16:42:28.986Z,9.05
2022-11-21T16:45:00.151Z,12.05
2022-11-21T16:47:31.587Z,12.55
2022-11-21T16:50:03.066Z,11.10
2022-11-21T16:52:39.123Z,8.68
2022-11-21T16:55:10.992Z,12.48
2022-11-21T16:57:43.473Z,16.00
2022-11-21T17:00:15.768Z,12.73
2022-11-21T17:02:47.123Z,12.48
2022-11-21T17:05:18.584Z,10.63
2022-11-21T17:07:52.502Z,9.32
2022-11-21T17:10:23.700Z,16.92
2022-11-21T17:12:54.605Z,14.15
2022-11-21T17:15:25.718Z,11.93
2022-11-21T17:18:01.649Z,9.20
2022-11-21T17:20:32.890Z,6.97
2022-11-21T17:23:06.658Z,6.45
2022-11-21T17:25:37.573Z,4.53
2022-11-21T17:28:08.885Z,8.05
2022-11-21T17:30:44.315Z,14.02
2022-11-21T17:33:15.390Z,11.57
2022-11-21T17:35:46.640Z,7.82
2022-11-21T17:38:21.038Z,11.02
2022-11-21T17:41:01.675Z,11.90
2022-11-21T17:43:33.327Z,12.82
2022-11-21T17:46:09.571Z,9.57
2022-11-21T17:51:14.691Z,9.40
2022-11-21T17:53:52.930Z,9.45
2022-11-21T17:56:26.029Z,8.35
2022-11-21T17:58:57.070Z,8.48
2022-11-21T18:01:28.457Z,10.60
2022-11-21T18:04:01.541Z,9.57
2022-11-21T18:06:37.742Z,12.05
2022-11-21T18:09:13.727Z,9.13
2022-11-21T18:11:46.290Z,9.05
2022-11-21T18:14:18.678Z,7.60
2022-11-21T18:16:53.643Z,6.85
2022-11-21T18:19:25.380Z,8.93
2022-11-21T18:21:56.503Z,9.23
2022-11-21T18:24:32.091Z,8.85
2022-11-21T18:27:03.510Z,10.65
2022-11-21T18:29:36.560Z,10.07
2022-11-21T18:32:09.516Z,12.07
2022-11-21T18:34:40.920Z,8.55
2022-11-21T18:37:12.196Z,8.27
2022-11-21T18:39:45.971Z,9.23
2022-11-21T18:42:17.059Z,7.18
2022-11-21T18:44:48.211Z,9.02
2022-11-21T18:47:20.914Z,10.30
2022-11-21T18:49:52.459Z,8.93
2022-11-21T18:52:24.164Z,7.68
2022-11-21T18:54:57.739Z,8.77
2022-11-21T18:57:28.624Z,9.25
2022-11-21T19:00:00.741Z,12.10
2022-11-21T19:02:31.619Z,7.30
2022-11-21T19:05:02.841Z,6.40
2022-11-21T19:07:34.106Z,9.43
2022-11-21T19:10:35.517Z,11.05
2022-11-21T19:12:59.401Z,8.50
2022-11-21T19:15:30.531Z,9.07
2022-11-21T19:18:01.729Z,8.35
2022-11-21T19:20:33.083Z,9.88
2022-11-21T19:23:05.327Z,16.92
2022-11-21T19:25:39.424Z,4.80
2022-11-21T19:28:10.756Z,9.40
2022-11-21T19:30:41.645Z,8.57
2022-11-21T19:33:14.397Z,4.93
2022-11-21T19:35:45.785Z,9.85
2022-11-21T19:38:16.762Z,9.30
2022-11-21T19:41:02.584Z,9.45
2022-11-21T19:43:34.018Z,7.55
2022-11-21T19:46:07.487Z,6.65
2022-11-21T19:48:38.671Z,5.85
2022-11-21T19:51:10.603Z,9.55
2022-11-21T19:53:42.421Z,8.18
2022-11-21T19:56:18.216Z,11.25
2022-11-21T19:58:50.228Z,9.90
2022-11-21T20:01:22.966Z,8.88
2022-11-21T20:03:56.884Z,14.43
2022-11-21T20:06:29.299Z,10.93
2022-11-21T20:09:02.430Z,7.13
2022-11-21T20:11:37.407Z,10.60
2022-11-21T20:14:08.617Z,8.55
2022-11-21T20:16:41.451Z,12.63
2022-11-21T20:19:15.062Z,10.40
2022-11-21T20:21:47.104Z,7.10
2022-11-21T20:24:18.789Z,11.40
2022-11-21T20:26:53.786Z,10.15
2022-11-21T20:29:26.567Z,11.82
2022-11-21T20:31:59.459Z,14.98
2022-11-21T20:34:30.827Z,9.90
2022-11-21T20:37:02.301Z,8.05
2022-11-21T20:39:33.502Z,11.15
2022-11-21T20:42:07.347Z,23.20
2022-11-21T20:45:41.660Z,11.63
2022-11-21T20:47:29.560Z,7.65
2022-11-21T20:50:00.390Z,8.90
2022-11-21T20:53:49.693Z,7.50
2022-11-21T20:55:22.647Z,12.20
2022-11-21T20:57:57.490Z,12.25
2022-11-21T21:00:28.418Z,11.70
2022-11-21T21:02:59.590Z,14.32
2022-11-21T21:05:30.902Z,9.18
2022-11-21T21:08:02.100Z,12.20
2022-11-21T21:10:51.334Z,6.97
2022-11-21T21:13:26.381Z,11.48
2022-11-21T21:15:57.560Z,10.70
2022-11-21T21:18:29.153Z,7.90
2022-11-21T21:21:16.679Z,7.97
2022-11-21T21:23:51.104Z,10.48
2022-11-21T21:26:25.409Z,11.77
2022-11-21T21:29:00.781Z,10.32
2022-11-21T21:31:33.031Z,7.95
2022-11-21T21:34:04.279Z,9.85
2022-11-21T21:36:35.448Z,13.73
2022-11-21T21:39:06.966Z,15.27
2022-11-21T21:41:40.310Z,8.50
2022-11-21T21:44:14.348Z,10.02
2022-11-21T21:46:45.327Z,10.40
2022-11-21T21:49:16.650Z,10.35
2022-11-21T21:51:47.907Z,8.23
2022-11-21T21:54:20.578Z,12.77
2022-11-21T21:56:52.963Z,9.32
2022-11-21T21:59:26.607Z,12.55
2022-11-21T22:01:57.591Z,11.75
2022-11-21T22:04:28.798Z,8.45
2022-11-21T22:07:00.789Z,9.20
2022-11-21T22:09:33.508Z,10.18
2022-11-21T22:12:04.309Z,11.57
2022-11-21T22:14:38.004Z,12.43
2022-11-21T22:17:09.124Z,6.00
2022-11-21T22:19:40.379Z,11.70
2022-11-21T22:22:11.120Z,7.20
2022-11-21T22:24:42.040Z,8.48
2022-11-21T22:27:13.006Z,10.10
2022-11-21T22:29:46.521Z,5.93
2022-11-21T22:32:19.907Z,7.10
2022-11-21T22:34:51.316Z,8.73
2022-11-21T22:37:22.289Z,6.47
2022-11-21T22:39:53.365Z,7.32
2022-11-21T22:42:24.046Z,10.70
2022-11-21T22:44:57.504Z,6.45
2022-11-21T22:47:28.372Z,7.20
2022-11-21T22:49:59.185Z,7.00
2022-11-21T22:52:30.180Z,10.10
2022-11-21T22:55:01.131Z,6.88
2022-11-21T22:57:32.328Z,6.97
2022-11-21T23:00:06.486Z,11.73
2022-11-21T23:02:37.238Z,8.85
2022-11-21T23:05:08.706Z,7.55
2022-11-21T23:07:39.512Z,5.25
2022-11-21T23:10:13.797Z,5.38
2022-11-21T23:12:44.656Z,7.55
2022-11-21T23:15:18.452Z,6.03
2022-11-21T23:17:52.526Z,4.82
2022-11-21T23:20:23.906Z,9.95
2022-11-21T23:22:54.899Z,10.07
2022-11-21T23:25:25.787Z,7.10
2022-11-21T23:27:56.600Z,8.30
2022-11-21T23:30:30.026Z,7.25
2022-11-21T23:33:00.826Z,5.90
2022-11-21T23:35:32.070Z,11.93
2022-11-21T23:38:02.853Z,8.32
2022-11-21T23:40:34.070Z,6.95
2022-11-21T23:43:04.961Z,4.95
2022-11-21T23:45:38.807Z,7.75
2022-11-21T23:48:10.383Z,8.27
2022-11-21T23:50:41.221Z,7.30
2022-11-21T23:53:12.542Z,5.30
2022-11-21T23:55:43.954Z,7.20
2022-11-21T23:58:15.580Z,5.45
